CW9352 Weather Reports


Display with metric or nautical units.
time (UTC)temp
F
wind
direction
speed
MPH
gust
MPH
rain 1hr
in
rain 24hr
in
rain mn
in
humidity
%
barometer
mb
20210926032203 82 233 1.0 1.0 0.00 0.00 0.00 50 1020.0
20210926031702 82 233 1.0 1.0 0.00 0.00 0.00 50 1020.0
20210926031203 82 233 1.0 1.0 0.00 0.00 0.00 50 1020.0
20210926030702 82 233 1.0 1.0 0.00 0.00 0.00 50 1020.0
20210926030203 82 233 1.0 1.0 0.00 0.00 0.00 50 1019.9
20210926025703 82 233 1.0 1.0 0.00 0.00 0.00 50 1019.9
20210926025203 82 233 1.0 1.0 0.00 0.00 0.00 50 1019.9
20210926024703 82 233 1.0 1.0 0.00 0.00 0.00 50 1019.8
20210926024203 82 233 1.0 1.0 0.00 0.00 0.00 50 1019.9
20210926023703 82 233 1.0 1.0 0.00 0.00 0.00 50 1019.8
20210926023203 82 233 1.0 1.0 0.00 0.00 0.00 50 1019.7
20210926022702 82 233 1.0 1.0 0.00 0.00 0.00 50 1019.7
20210926022203 82 233 1.0 1.0 0.00 0.00 0.00 50 1019.7
20210926021703 82 233 1.0 1.0 0.00 0.00 0.00 50 1019.6
20210926021203 82 233 1.0 1.0 0.00 0.00 0.00 50 1019.6
20210926020703 82 233 1.0 1.0 0.00 0.00 0.00 50 1019.6
20210926020203 82 233 1.0 1.0 0.00 0.00 0.00 50 1019.5
20210926015703 82 233 1.0 1.0 0.00 0.00 0.00 50 1019.5
20210926015203 82 233 1.0 1.0 0.00 0.00 0.00 50 1019.5
20210926014703 82 233 1.0 1.0 0.00 0.00 0.00 50 1019.4
20210926014203 82 233 1.0 1.0 0.00 0.00 0.00 50 1019.4
20210926013702 82 233 1.0 1.0 0.00 0.00 0.00 50 1019.3
20210926013203 82 233 1.0 1.0 0.00 0.00 0.00 50 1019.4
20210926012702 82 233 1.0 1.0 0.00 0.00 0.00 50 1019.3
20210926012203 82 233 1.0 1.0 0.00 0.00 0.00 50 1019.1
20210926011703 82 233 1.0 1.0 0.00 0.00 0.00 50 1019.0
20210926011203 82 233 1.0 1.0 0.00 0.00 0.00 50 1019.0
20210926010703 82 233 1.0 1.0 0.00 0.00 0.00 50 1018.9
20210926010203 82 233 1.0 1.0 0.00 0.00 0.00 50 1018.9
20210926005703 82 233 1.0 1.0 0.00 0.00 0.00 50 1018.8
20210926005203 82 233 1.0 1.0 0.00 0.00 0.00 50 1018.8
20210926004703 82 233 1.0 1.0 0.00 0.00 0.00 50 1018.7
20210926004202 82 233 1.0 1.0 0.00 0.00 0.00 50 1018.5
20210926003703 82 233 1.0 1.0 0.00 0.00 0.00 50 1018.5
20210926003203 82 233 1.0 1.0 0.00 0.00 0.00 50 1018.4
20210926002703 82 233 1.0 1.0 0.00 0.00 0.00 50 1018.3
20210926002203 82 233 1.0 1.0 0.00 0.00 0.00 50 1018.3
20210926001703 82 233 1.0 1.0 0.00 0.00 0.00 50 1018.2
20210926001203 82 233 1.0 1.0 0.00 0.00 0.00 50 1018.3
20210926000703 82 233 1.0 1.0 0.00 0.00 0.00 50 1018.3
20210926000204 82 233 1.0 1.0 0.00 0.00 0.00 50 1018.3
20210925235703 82 233 1.0 1.0 0.00 0.00 0.00 50 1018.4
20210925235203 82 233 1.0 1.0 0.00 0.00 0.00 50 1018.3
20210925234703 82 233 1.0 1.0 0.00 0.00 0.00 50 1018.3
20210925234203 82 233 1.0 1.0 0.00 0.00 0.00 50 1018.4
20210925233703 82 233 1.0 1.0 0.00 0.00 0.00 50 1018.3
20210925233203 82 233 1.0 1.0 0.00 0.00 0.00 50 1018.3
20210925232703 82 233 1.0 1.0 0.00 0.00 0.00 50 1018.2
20210925232203 82 233 1.0 1.0 0.00 0.00 0.00 50 1018.2
20210925231703 82 233 1.0 1.0 0.00 0.00 0.00 50 1018.3
20210925231203 82 233 1.0 1.0 0.00 0.00 0.00 50 1018.2
20210925230703 82 233 1.0 1.0 0.00 0.00 0.00 50 1018.2
20210925230203 82 233 1.0 1.0 0.00 0.00 0.00 50 1018.2
20210925225703 82 233 1.0 1.0 0.00 0.00 0.00 50 1018.1
20210925225203 82 233 1.0 1.0 0.00 0.00 0.00 50 1018.1
20210925224703 82 233 1.0 1.0 0.00 0.00 0.00 50 1018.2
20210925224203 82 233 1.0 1.0 0.00 0.00 0.00 50 1018.1
20210925223703 82 233 1.0 1.0 0.00 0.00 0.00 50 1018.2
20210925223203 82 233 1.0 1.0 0.00 0.00 0.00 50 1018.1
20210925222704 82 233 1.0 1.0 0.00 0.00 0.00 50 1018.1
20210925222203 82 233 1.0 1.0 0.00 0.00 0.00 50 1018.1
20210925221704 82 233 1.0 1.0 0.00 0.00 0.00 50 1018.0
20210925221203 82 233 1.0 1.0 0.00 0.00 0.00 50 1018.0
20210925220703 82 233 1.0 1.0 0.00 0.00 0.00 50 1018.0
20210925220203 82 233 1.0 1.0 0.00 0.00 0.00 50 1018.0
20210925215703 82 233 1.0 1.0 0.00 0.00 0.00 50 1018.0
20210925215204 82 233 2.0 6.0 0.00 0.00 0.00 50 1018.1
20210925214703 82 278 2.0 6.0 0.00 0.00 0.00 49 1018.2
20210925214203 82 232 2.0 5.0 0.00 0.00 0.00 50 1018.2
20210925213703 82 200 3.0 7.0 0.00 0.00 0.00 46 1018.1
20210925213203 82 218 1.0 6.0 0.00 0.00 0.00 49 1018.3
20210925212703 82 214 1.0 6.0 0.00 0.00 0.00 47 1018.3
20210925212203 78 284 2.0 3.0 0.00 0.00 0.00 66 1018.3
20210925211703 73 15 1.0 1.0 0.00 0.00 0.00 66 1018.3
20210925211203 73 15 1.0 1.0 0.00 0.00 0.00 66 1018.3
20210925210703 73 15 1.0 1.0 0.00 0.00 0.00 66 1018.3
20210925210203 73 15 1.0 1.0 0.00 0.00 0.00 66 1018.4
20210925205703 73 15 1.0 1.0 0.00 0.00 0.00 66 1018.4
20210925205203 73 15 1.0 1.0 0.00 0.00 0.00 66 1018.4
20210925204703 73 15 1.0 1.0 0.00 0.00 0.00 66 1018.5
20210925204203 73 15 1.0 1.0 0.00 0.00 0.00 66 1018.5
20210925203703 73 15 1.0 1.0 0.00 0.00 0.00 66 1018.5
20210925203203 73 15 1.0 1.0 0.00 0.00 0.00 66 1018.6
20210925202703 73 15 1.0 1.0 0.00 0.00 0.00 66 1018.6
20210925202203 73 15 1.0 1.0 0.00 0.00 0.00 66 1018.6
20210925201703 73 15 1.0 1.0 0.00 0.00 0.00 66 1018.6
20210925201204 73 15 1.0 1.0 0.00 0.00 0.00 66 1018.7
20210925200704 73 15 1.0 1.0 0.00 0.00 0.00 66 1018.7
20210925200203 73 15 1.0 1.0 0.00 0.00 0.00 66 1018.7
20210925195703 73 15 1.0 1.0 0.00 0.00 0.00 66 1018.9
20210925195204 73 15 1.0 1.0 0.00 0.00 0.00 66 1019.0
20210925194703 73 15 1.0 1.0 0.00 0.00 0.00 66 1019.1
20210925194203 73 15 1.0 1.0 0.00 0.00 0.00 66 1019.1
20210925193703 73 15 1.0 1.0 0.00 0.00 0.00 66 1019.1
20210925193203 73 15 1.0 1.0 0.00 0.00 0.00 66 1019.2
20210925192703 73 15 1.0 1.0 0.00 0.00 0.00 66 1019.2
20210925192203 73 15 1.0 1.0 0.00 0.00 0.00 66 1019.3
20210925191703 73 15 1.0 1.0 0.00 0.00 0.00 66 1019.3
20210925191203 73 15 1.0 1.0 0.00 0.00 0.00 66 1019.4
20210925190703 73 15 1.0 1.0 0.00 0.00 0.00 66 1019.5
20210925190203 73 15 1.0 1.0 0.00 0.00 0.00 66 1019.4
20210925185703 73 15 1.0 1.0 0.00 0.00 0.00 66 1019.6
20210925185204 73 15 1.0 1.0 0.00 0.00 0.00 66 1019.6
20210925184703 73 15 1.0 1.0 0.00 0.00 0.00 66 1019.7
20210925184204 73 15 1.0 1.0 0.00 0.00 0.00 66 1019.7
20210925183703 73 15 1.0 1.0 0.00 0.00 0.00 66 1019.6
20210925183203 73 15 1.0 1.0 0.00 0.00 0.00 66 1019.8
20210925182703 73 15 1.0 1.0 0.00 0.00 0.00 66 1019.7
20210925182204 73 15 1.0 1.0 0.00 0.00 0.00 66 1019.7
20210925181703 73 15 1.0 1.0 0.00 0.00 0.00 66 1019.8
20210925181204 73 15 1.0 1.0 0.00 0.00 0.00 66 1019.8
20210925180703 73 15 1.0 1.0 0.00 0.00 0.00 66 1019.9
20210925180203 73 15 1.0 1.0 0.00 0.00 0.00 66 1019.9
20210925175704 73 15 1.0 1.0 0.00 0.00 0.00 66 1019.8
20210925175204 73 15 1.0 1.0 0.00 0.00 0.00 66 1019.8
20210925174704 73 15 1.0 1.0 0.00 0.00 0.00 66 1019.8
20210925174203 73 15 1.0 1.0 0.00 0.00 0.00 66 1020.0
20210925173703 73 15 1.0 1.0 0.00 0.00 0.00 66 1020.0
20210925173203 73 15 1.0 1.0 0.00 0.00 0.00 66 1020.0
20210925172704 73 15 1.0 1.0 0.00 0.00 0.00 66 1020.0
20210925172203 73 15 1.0 1.0 0.00 0.00 0.00 66 1020.0
20210925171703 73 15 1.0 1.0 0.00 0.00 0.00 66 1020.0
20210925171203 73 15 1.0 1.0 0.00 0.00 0.00 66 1020.1
20210925170703 73 15 1.0 1.0 0.00 0.00 0.00 66 1020.2
20210925170203 73 15 1.0 1.0 0.00 0.00 0.00 66 1020.2
20210925165703 73 15 1.0 1.0 0.00 0.00 0.00 66 1020.2
20210925165204 73 15 1.0 1.0 0.00 0.00 0.00 66 1020.2
20210925164704 73 15 1.0 1.0 0.00 0.00 0.00 66 1020.2
20210925164203 73 15 1.0 1.0 0.00 0.00 0.00 66 1020.3
20210925163704 73 15 1.0 1.0 0.00 0.00 0.00 66 1020.4
20210925163203 73 15 1.0 1.0 0.00 0.00 0.00 66 1020.4
20210925162703 73 15 1.0 1.0 0.00 0.00 0.00 66 1020.5
20210925162203 73 15 1.0 1.0 0.00 0.00 0.00 66 1020.5
20210925161703 73 15 1.0 1.0 0.00 0.00 0.00 66 1020.5
20210925161204 73 15 1.0 1.0 0.00 0.00 0.00 66 1020.5
20210925160704 73 15 1.0 1.0 0.00 0.00 0.00 66 1020.6
20210925160204 73 15 1.0 1.0 0.00 0.00 0.00 66 1020.6
20210925155704 73 15 1.0 1.0 0.00 0.00 0.00 66 1020.7
20210925155203 73 15 1.0 1.0 0.00 0.00 0.00 66 1020.7
20210925154703 73 15 1.0 1.0 0.00 0.00 0.00 66 1020.7
20210925154203 73 15 1.0 1.0 0.00 0.00 0.00 66 1020.8
20210925153704 73 15 1.0 1.0 0.00 0.00 0.00 66 1020.7
20210925153203 73 15 1.0 1.0 0.00 0.00 0.00 66 1020.7
20210925152704 73 15 1.0 1.0 0.00 0.00 0.00 66 1020.6
20210925152204 73 15 1.0 1.0 0.00 0.00 0.00 66 1020.8
20210925151703 73 15 1.0 1.0 0.00 0.00 0.00 66 1020.9
20210925151203 73 15 1.0 1.0 0.00 0.00 0.00 66 1020.9
20210925150703 73 15 1.0 1.0 0.00 0.00 0.00 66 1020.8
20210925150203 73 15 1.0 1.0 0.00 0.00 0.00 66 1020.8
20210925145704 73 15 1.0 1.0 0.00 0.00 0.00 66 1020.9
20210925145203 73 15 1.0 1.0 0.00 0.00 0.00 66 1020.8
20210925144703 73 15 1.0 1.0 0.00 0.00 0.00 66 1020.8
20210925144203 73 15 1.0 1.0 0.00 0.00 0.00 66 1020.9
20210925143703 73 15 1.0 1.0 0.00 0.00 0.00 66 1020.8
20210925143203 73 15 1.0 1.0 0.00 0.00 0.00 66 1020.8
20210925142703 73 15 1.0 1.0 0.00 0.00 0.00 66 1020.8
20210925142203 73 15 1.0 1.0 0.00 0.00 0.00 66 1020.6
20210925141703 73 10 2.0 7.0 0.00 0.00 0.00 66 1020.6
20210925141203 72 48 7.0 7.0 0.00 0.00 0.00 67 1020.6
20210925140703 72 36 7.0 7.0 0.00 0.00 0.00 66 1020.6
20210925140203 72 36 2.0 6.0 0.00 0.00 0.00 67 1020.6
20210925135704 71 3 2.0 6.0 0.00 0.00 0.00 68 1020.6
20210925135204 71 24 2.0 5.0 0.00 0.00 0.00 70 1020.5
20210925134704 66 4 0.0 3.0 0.00 0.00 0.00 100 1020.6
20210925134204 66 0 0.0 0.0 0.00 0.00 0.00 100 1020.6
20210925133704 66 0 0.0 0.0 0.00 0.00 0.00 100 1020.6
20210925133204 66 0 0.0 0.0 0.00 0.00 0.00 100 1020.7
20210925132704 66 0 0.0 0.0 0.00 0.00 0.00 100 1020.7
20210925132204 66 0 0.0 0.0 0.00 0.00 0.00 100 1020.6
20210925131703 66 0 0.0 0.0 0.00 0.00 0.00 100 1020.6
20210925131203 66 0 0.0 0.0 0.00 0.00 0.00 100 1020.5
20210925130704 66 0 0.0 0.0 0.00 0.00 0.00 100 1020.4
20210925130203 66 0 0.0 0.0 0.00 0.00 0.00 100 1020.4
20210925125703 66 0 0.0 0.0 0.00 0.00 0.00 100 1020.4
20210925125203 66 0 0.0 0.0 0.00 0.00 0.00 100 1020.5
20210925124703 66 0 0.0 0.0 0.00 0.00 0.00 100 1020.5
20210925124203 66 0 0.0 0.0 0.00 0.00 0.00 100 1020.4
20210925123704 66 0 0.0 0.0 0.00 0.00 0.00 100 1020.3
20210925122704 66 0 0.0 0.0 0.00 0.00 0.00 100 1020.3
20210925122203 66 357 0.0 0.0 0.00 0.00 0.00 100 1020.3
20210925121703 66 357 0.0 0.0 0.00 0.00 0.00 100 1020.3
20210925121203 66 357 0.0 0.0 0.00 0.00 0.00 100 1020.1
20210925120703 66 357 0.0 0.0 0.00 0.00 0.00 100 1020.1
20210925120203 66 357 0.0 0.0 0.00 0.00 0.00 100 1020.1
20210925115703 66 357 0.0 0.0 0.00 0.00 0.00 100 1020.1
20210925115202 66 357 0.0 0.0 0.00 0.00 0.00 100 1020.2
20210925114702 66 357 0.0 0.0 0.00 0.00 0.00 100 1020.1
20210925114203 66 357 0.0 0.0 0.00 0.00 0.00 100 1020.0
20210925113703 66 357 0.0 0.0 0.00 0.00 0.00 100 1020.0
20210925113203 66 357 0.0 0.0 0.00 0.00 0.00 100 1020.0
20210925112703 66 357 0.0 0.0 0.00 0.00 0.00 100 1020.0
20210925112202 66 357 0.0 0.0 0.00 0.00 0.00 100 1019.9
20210925111702 66 357 0.0 0.0 0.00 0.00 0.00 100 1019.8
20210925111202 66 357 0.0 0.0 0.00 0.00 0.00 100 1019.8
20210925110702 66 357 0.0 0.0 0.00 0.00 0.00 100 1019.8
20210925110203 66 357 0.0 0.0 0.00 0.00 0.00 100 1019.8
20210925105703 66 357 0.0 0.0 0.00 0.00 0.00 100 1019.7
20210925105203 66 357 0.0 0.0 0.00 0.00 0.00 100 1019.6
20210925104702 66 357 0.0 0.0 0.00 0.00 0.00 100 1019.5
20210925104202 66 357 0.0 0.0 0.00 0.00 0.00 100 1019.5
20210925103703 66 357 0.0 0.0 0.00 0.00 0.00 100 1019.5
20210925103203 66 357 0.0 0.0 0.00 0.00 0.00 100 1019.4
20210925102703 66 357 0.0 0.0 0.00 0.00 0.00 100 1019.4
20210925102203 66 357 0.0 0.0 0.00 0.00 0.00 100 1019.4
20210925101702 66 357 0.0 0.0 0.00 0.00 0.00 100 1019.4
20210925101203 66 357 0.0 0.0 0.00 0.00 0.00 100 1019.3
20210925100703 66 357 0.0 0.0 0.00 0.00 0.00 100 1019.3
20210925100203 66 357 0.0 0.0 0.00 0.00 0.00 100 1019.3
20210925095703 66 357 0.0 0.0 0.00 0.00 0.00 100 1019.2
20210925095203 66 357 0.0 0.0 0.00 0.00 0.00 100 1019.1
20210925094703 66 357 0.0 0.0 0.00 0.00 0.00 100 1019.0
20210925094203 66 357 0.0 0.0 0.00 0.00 0.00 100 1019.0
20210925093703 66 357 0.0 0.0 0.00 0.00 0.00 100 1018.9
20210925093203 66 357 0.0 0.0 0.00 0.00 0.00 100 1019.0
20210925092703 66 357 0.0 0.0 0.00 0.00 0.00 100 1019.0
20210925092203 66 357 0.0 0.0 0.00 0.00 0.00 100 1019.0
20210925091703 66 357 0.0 0.0 0.00 0.00 0.00 100 1018.9
20210925091208 66 357 0.0 0.0 0.00 0.00 0.00 100 1018.9
20210925090703 66 357 0.0 0.0 0.00 0.00 0.00 100 1018.9
20210925090202 66 357 0.0 0.0 0.00 0.00 0.00 100 1018.8
20210925085703 66 357 0.0 0.0 0.00 0.00 0.00 100 1018.8
20210925085203 66 357 0.0 0.0 0.00 0.00 0.00 100 1018.9
20210925084703 66 357 0.0 0.0 0.00 0.00 0.00 100 1018.9
20210925084203 66 357 0.0 0.0 0.00 0.00 0.00 100 1018.9
20210925083703 66 357 0.0 0.0 0.00 0.00 0.00 100 1018.9
20210925083203 66 357 0.0 0.0 0.00 0.00 0.00 100 1018.8
20210925082703 66 357 0.0 0.0 0.00 0.00 0.00 100 1018.9
20210925082203 66 357 0.0 0.0 0.00 0.00 0.00 100 1018.9
20210925081703 66 357 0.0 0.0 0.00 0.00 0.00 100 1018.9
20210925081203 66 357 0.0 0.0 0.00 0.00 0.00 100 1018.9
20210925080703 66 357 0.0 0.0 0.00 0.00 0.00 100 1018.8
20210925080203 66 357 0.0 0.0 0.00 0.00 0.00 100 1018.8
20210925075703 66 357 0.0 0.0 0.00 0.00 0.00 100 1018.8
20210925075203 66 357 0.0 0.0 0.00 0.00 0.00 100 1018.8
20210925074703 66 357 0.0 0.0 0.00 0.00 0.00 100 1018.8
20210925074203 66 357 0.0 0.0 0.00 0.00 0.00 100 1018.8
20210925073703 66 357 0.0 0.0 0.00 0.00 0.00 100 1018.8
20210925073203 66 357 0.0 0.0 0.00 0.00 0.00 100 1018.7
20210925072703 66 357 0.0 0.0 0.00 0.00 0.00 100 1018.7
20210925072203 66 357 0.0 0.0 0.00 0.00 0.00 100 1018.7
20210925071703 66 357 0.0 0.0 0.00 0.00 0.00 100 1018.7
20210925071203 66 357 0.0 0.0 0.00 0.00 0.00 100 1018.7
20210925070703 66 357 0.0 0.0 0.00 0.00 0.00 100 1018.8
20210925070203 66 357 0.0 0.0 0.00 0.00 0.00 100 1018.8
20210925065703 66 357 0.0 0.0 0.00 0.00 0.00 100 1018.8
20210925065204 66 357 0.0 0.0 0.00 0.00 0.00 100 1018.7
20210925064702 66 357 0.0 0.0 0.00 0.00 0.00 100 1018.7
20210925064203 66 357 0.0 0.0 0.00 0.00 0.00 100 1018.7
20210925063703 66 357 0.0 0.0 0.00 0.00 0.00 100 1018.8
20210925063203 66 357 0.0 0.0 0.00 0.00 0.00 100 1018.7
20210925062703 66 357 0.0 0.0 0.00 0.00 0.00 100 1018.8
20210925062203 66 357 0.0 0.0 0.00 0.00 0.00 100 1018.7
20210925061703 66 357 0.0 0.0 0.00 0.00 0.00 100 1018.7
20210925061204 66 357 0.0 0.0 0.00 0.00 0.00 100 1018.8
20210925060703 66 357 0.0 0.0 0.00 0.00 0.00 100 1018.8
20210925060204 66 357 0.0 0.0 0.00 0.00 0.00 100 1018.9
20210925055703 66 357 0.0 0.0 0.00 0.00 0.00 100 1018.8
20210925055203 66 357 0.0 0.0 0.00 0.00 0.00 100 1018.9
20210925054703 66 357 0.0 0.0 0.00 0.00 0.00 100 1018.9
20210925054203 66 357 0.0 0.0 0.00 0.00 0.00 100 1018.8
20210925053704 66 357 0.0 0.0 0.00 0.00 0.00 100 1018.9
20210925053203 66 357 0.0 0.0 0.00 0.00 0.00 100 1018.9
20210925052703 66 357 0.0 0.0 0.00 0.00 0.00 100 1018.9
20210925052204 66 357 0.0 0.0 0.00 0.00 0.00 100 1018.9
20210925051704 66 357 0.0 0.0 0.00 0.00 0.00 100 1018.9
20210925051204 66 357 0.0 0.0 0.00 0.00 0.00 100 1018.8
20210925050703 66 357 0.0 0.0 0.00 0.00 0.00 100 1018.9
20210925050203 66 357 0.0 0.0 0.00 0.00 0.00 100 1018.9
20210925045703 66 357 0.0 0.0 0.00 0.00 0.00 100 1019.0
20210925045203 66 357 0.0 0.0 0.00 0.00 0.00 100 1019.0
20210925044704 66 357 0.0 0.0 0.00 0.00 0.00 100 1018.9
20210925044203 66 357 0.0 0.0 0.00 0.00 0.00 100 1019.0
20210925043703 66 357 0.0 0.0 0.00 0.00 0.00 100 1019.0
20210925043204 66 357 0.0 0.0 0.00 0.00 0.00 100 1019.2
20210925042703 66 357 0.0 0.0 0.00 0.00 0.00 100 1019.2
20210925042204 66 357 0.0 0.0 0.00 0.00 0.00 100 1019.3
20210925041703 66 357 0.0 0.0 0.00 0.00 0.00 100 1019.4
20210925041203 66 357 0.0 0.0 0.00 0.00 0.00 100 1019.5
20210925040703 66 357 0.0 0.0 0.00 0.00 0.00 100 1019.5
20210925040203 66 357 0.0 0.0 0.00 0.00 0.00 100 1019.6
20210925035704 66 357 0.0 0.0 0.00 0.00 0.00 100 1019.5
20210925035203 66 357 0.0 0.0 0.00 0.00 0.00 100 1019.6
20210925034703 66 357 0.0 0.0 0.00 0.00 0.00 100 1019.7
20210925034204 66 357 0.0 0.0 0.00 0.00 0.00 100 1019.7
20210925033703 66 357 0.0 0.0 0.00 0.00 0.00 100 1019.6
20210925033204 66 357 0.0 0.0 0.00 0.00 0.00 100 1019.6
20210925032703 66 357 0.0 0.0 0.00 0.00 0.00 100 1019.5